Map

Track Data

SID SEASON NUMBER BASIN SUBBASIN NAME ISO_TIME NATURE LAT LON WMO_WIND WMO_PRES WMO_AGENCY TRACK_TYPE DIST2LAND LANDFALL IFLAG USA_AGENCY USA_ATCF_ID USA_LAT USA_LON USA_RECORD USA_STATUS USA_WIND USA_PRES USA_SSHS USA_R34_NE USA_R34_SE USA_R34_SW USA_R34_NW USA_R50_NE USA_R50_SE USA_R50_SW USA_R50_NW USA_R64_NE USA_R64_SE USA_R64_SW USA_R64_NW USA_POCI USA_ROCI USA_RMW USA_EYE TOKYO_LAT TOKYO_LON TOKYO_GRADE TOKYO_WIND TOKYO_PRES TOKYO_R50_DIR TOKYO_R50_LONG TOKYO_R50_SHORT TOKYO_R30_DIR TOKYO_R30_LONG TOKYO_R30_SHORT TOKYO_LAND CMA_LAT CMA_LON CMA_CAT CMA_WIND CMA_PRES HKO_LAT HKO_LON HKO_CAT HKO_WIND HKO_PRES NEWDELHI_LAT NEWDELHI_LON NEWDELHI_GRADE NEWDELHI_WIND NEWDELHI_PRES NEWDELHI_CI NEWDELHI_DP NEWDELHI_POCI REUNION_LAT REUNION_LON REUNION_TYPE REUNION_WIND REUNION_PRES REUNION_TNUM REUNION_CI REUNION_RMW REUNION_R34_NE REUNION_R34_SE REUNION_R34_SW REUNION_R34_NW REUNION_R50_NE REUNION_R50_SE REUNION_R50_SW REUNION_R50_NW REUNION_R64_NE REUNION_R64_SE REUNION_R64_SW REUNION_R64_NW BOM_LAT BOM_LON BOM_TYPE BOM_WIND BOM_PRES BOM_TNUM BOM_CI BOM_RMW BOM_R34_NE BOM_R34_SE BOM_R34_SW BOM_R34_NW BOM_R50_NE BOM_R50_SE BOM_R50_SW BOM_R50_NW BOM_R64_NE BOM_R64_SE BOM_R64_SW BOM_R64_NW BOM_ROCI BOM_POCI BOM_EYE BOM_POS_METHOD BOM_PRES_METHOD NADI_LAT NADI_LON NADI_CAT NADI_WIND NADI_PRES WELLINGTON_LAT WELLINGTON_LON WELLINGTON_WIND WELLINGTON_PRES DS824_LAT DS824_LON DS824_STAGE DS824_WIND DS824_PRES TD9636_LAT TD9636_LON TD9636_STAGE TD9636_WIND TD9636_PRES TD9635_LAT TD9635_LON TD9635_WIND TD9635_PRES TD9635_ROCI NEUMANN_LAT NEUMANN_LON NEUMANN_CLASS NEUMANN_WIND NEUMANN_PRES MLC_LAT MLC_LON MLC_CLASS MLC_WIND MLC_PRES USA_GUST BOM_GUST BOM_GUST_PER REUNION_GUST REUNION_GUST_PER USA_SEAHGT USA_SEARAD_NE USA_SEARAD_SE USA_SEARAD_SW USA_SEARAD_NW STORM_SPEED STORM_DIR
1944254N13142 1944 56 WP MM NOT_NAMED 1944-09-09 12:00:00 NR 13.4000 142.400 main 1743 1743 __________O___ -1 13.4000 142.400 3 8 316
1944254N13142 1944 56 WP MM NOT_NAMED 1944-09-09 15:00:00 NR 13.6909 142.115 main 1762 1762 __________P___ -1 13.6909 142.115 3 8 316
1944254N13142 1944 56 WP MM NOT_NAMED 1944-09-09 18:00:00 NR 13.9754 141.833 main 1769 1752 __________P___ -1 13.9754 141.833 3 8 316
1944254N13142 1944 56 WP MM NOT_NAMED 1944-09-09 21:00:00 NR 14.2471 141.560 main 1752 1726 __________P___ -1 14.2471 141.560 3 7 315
1944254N13142 1944 56 WP MM NOT_NAMED 1944-09-10 00:00:00 NR 14.5000 141.300 main 1726 1707 __________O___ -1 14.5000 141.300 4 7 315
1944254N13142 1944 56 WP MM NOT_NAMED 1944-09-10 03:00:00 NR 14.7310 141.055 main 1710 1681 __________P___ -1 14.7310 141.055 4 7 314
1944254N13142 1944 56 WP MM NOT_NAMED 1944-09-10 06:00:00 NR 14.9497 140.814 main 1681 1664 __________P___ -1 14.9497 140.814 4 6 313
1944254N13142 1944 56 WP MM NOT_NAMED 1944-09-10 09:00:00 NR 15.1685 140.567 main 1665 1638 __________P___ -1 15.1685 140.567 4 7 312
1944254N13142 1944 56 WP MM NOT_NAMED 1944-09-10 12:00:00 NR 15.4000 140.300 main 1638 1611 __________O___ -1 15.4000 140.300 4 7 312
1944254N13142 1944 56 WP MM NOT_NAMED 1944-09-10 15:00:00 NR 15.6648 139.989 main 1613 1586 __________P___ -1 15.6648 139.989 4 8 311
1944254N13142 1944 56 WP MM NOT_NAMED 1944-09-10 18:00:00 NR 15.9426 139.658 main 1586 1553 __________P___ -1 15.9426 139.658 4 9 311
1944254N13142 1944 56 WP MM NOT_NAMED 1944-09-10 21:00:00 NR 16.2241 139.323 main 1553 1531 __________P___ -1 16.2241 139.323 4 8 311
1944254N13142 1944 56 WP MM NOT_NAMED 1944-09-11 00:00:00 NR 16.5000 139.000 main 1531 1508 __________O___ -1 16.5000 139.000 4 8 312
1944254N13142 1944 56 WP MM NOT_NAMED 1944-09-11 03:00:00 NR 16.7529 138.714 main 1511 1494 __________P___ -1 16.7529 138.714 4 7 313
1944254N13142 1944 56 WP MM NOT_NAMED 1944-09-11 06:00:00 NR 16.9997 138.442 main 1488 1476 __________P___ -1 16.9997 138.442 4 7 314
1944254N13142 1944 56 WP MM NOT_NAMED 1944-09-11 09:00:00 NR 17.2466 138.174 main 1476 1458 __________P___ -1 17.2466 138.174 4 7 314
1944254N13142 1944 56 WP MM NOT_NAMED 1944-09-11 12:00:00 NR 17.5000 137.900 main 1458 1438 __________O___ -1 17.5000 137.900 4 8 314
1944254N13142 1944 56 WP MM NOT_NAMED 1944-09-11 15:00:00 NR 17.7717 137.611 main 1442 1423 __________P___ -1 17.7717 137.611 4 8 315
1944254N13142 1944 56 WP MM NOT_NAMED 1944-09-11 18:00:00 NR 18.0498 137.315 main 1423 1409 __________P___ -1 18.0498 137.315 4 8 314
1944254N13142 1944 56 WP MM NOT_NAMED 1944-09-11 21:00:00 NR 18.3280 137.011 main 1409 1397 __________P___ -1 18.3280 137.011 4 8 313
1944254N13142 1944 56 WP MM NOT_NAMED 1944-09-12 00:00:00 NR 18.6000 136.700 main 1397 1381 __________O___ -1 18.6000 136.700 4 8 312
1944254N13142 1944 56 WP MM NOT_NAMED 1944-09-12 03:00:00 NR 18.8612 136.378 main 1387 1366 __________P___ -1 18.8612 136.378 4 8 310
1944254N13142 1944 56 WP MM NOT_NAMED 1944-09-12 06:00:00 NR 19.1149 136.050 main 1363 1346 __________P___ -1 19.1149 136.050 4 8 309
1944254N13142 1944 56 WP MM NOT_NAMED 1944-09-12 09:00:00 NR 19.3612 135.722 main 1351 1333 __________P___ -1 19.3612 135.722 4 8 308
1944254N13142 1944 56 WP MM NOT_NAMED 1944-09-12 12:00:00 NR 19.6000 135.400 main 1333 1315 __________O___ -1 19.6000 135.400 4 8 308
1944254N13142 1944 56 WP MM NOT_NAMED 1944-09-12 15:00:00 NR 19.8279 135.092 main 1315 1295 __________P___ -1 19.8279 135.092 4 7 308
1944254N13142 1944 56 WP MM NOT_NAMED 1944-09-12 18:00:00 NR 20.0497 134.792 main 1295 1254 __________P___ -1 20.0497 134.792 4 7 308
1944254N13142 1944 56 WP MM NOT_NAMED 1944-09-12 21:00:00 NR 20.2717 134.496 main 1254 1223 __________P___ -1 20.2717 134.496 4 7 309
1944254N13142 1944 56 WP MM NOT_NAMED 1944-09-13 00:00:00 NR 20.5000 134.200 main 1223 1194 __________O___ -1 20.5000 134.200 4 7 310
1944254N13142 1944 56 WP MM NOT_NAMED 1944-09-13 03:00:00 NR 20.7468 133.896 main 1194 1153 __________P___ -1 20.7468 133.896 4 8 311
1944254N13142 1944 56 WP MM NOT_NAMED 1944-09-13 06:00:00 NR 20.9999 133.592 main 1153 1124 __________P___ -1 20.9999 133.592 4 8 312
1944254N13142 1944 56 WP MM NOT_NAMED 1944-09-13 09:00:00 NR 21.2530 133.293 main 1113 1085 __________P___ -1 21.2530 133.293 4 7 312
1944254N13142 1944 56 WP MM NOT_NAMED 1944-09-13 12:00:00 NR 21.5000 133.000 main 1085 1057 __________O___ -1 21.5000 133.000 4 7 312
1944254N13142 1944 56 WP MM NOT_NAMED 1944-09-13 15:00:00 NR 21.7238 132.725 main 1057 1031 __________P___ -1 21.7238 132.725 4 7 311
1944254N13142 1944 56 WP MM NOT_NAMED 1944-09-13 18:00:00 NR 21.9421 132.457 main 1031 994 __________P___ -1 21.9421 132.457 4 7 311
1944254N13142 1944 56 WP MM NOT_NAMED 1944-09-13 21:00:00 NR 22.1644 132.185 main 994 967 __________P___ -1 22.1644 132.185 4 7 312
1944254N13142 1944 56 WP MM NOT_NAMED 1944-09-14 00:00:00 NR 22.4000 131.900 main 967 942 __________O___ -1 22.4000 131.900 4 7 311
1944254N13142 1944 56 WP MM NOT_NAMED 1944-09-14 03:00:00 NR 22.6566 131.581 main 931 906 __________P___ -1 22.6566 131.581 4 8 311
1944254N13142 1944 56 WP MM NOT_NAMED 1944-09-14 06:00:00 NR 22.9276 131.250 main 905 871 __________P___ -1 22.9276 131.250 4 8 312
1944254N13142 1944 56 WP MM NOT_NAMED 1944-09-14 09:00:00 NR 23.2097 130.919 main 871 837 __________P___ -1 23.2097 130.919 4 8 314
1944254N13142 1944 56 WP MM NOT_NAMED 1944-09-14 12:00:00 NR 23.5000 130.600 main 837 804 __________O___ -1 23.5000 130.600 4 8 315
1944254N13142 1944 56 WP MM NOT_NAMED 1944-09-14 15:00:00 NR 23.7722 130.310 main 804 783 __________P___ -1 23.7722 130.310 4 8 317
1944254N13142 1944 56 WP MM NOT_NAMED 1944-09-14 18:00:00 NR 24.0547 130.034 main 773 752 __________P___ -1 24.0547 130.034 4 8 320
1944254N13142 1944 56 WP MM NOT_NAMED 1944-09-14 21:00:00 NR 24.3598 129.766 main 742 713 __________P___ -1 24.3598 129.766 4 8 323
1944254N13142 1944 56 WP MM NOT_NAMED 1944-09-15 00:00:00 NR 24.7000 129.500 main 713 674 __________O___ -1 24.7000 129.500 4 9 324
1944254N13142 1944 56 WP MM NOT_NAMED 1944-09-15 03:00:00 NR 25.0892 129.193 main 674 638 __________P___ -1 25.0892 129.193 4 10 326
1944254N13142 1944 56 WP MM NOT_NAMED 1944-09-15 06:00:00 NR 25.5128 128.891 main 638 601 __________P___ -1 25.5128 128.891 4 10 329
1944254N13142 1944 56 WP MM NOT_NAMED 1944-09-15 09:00:00 NR 25.9549 128.618 main 594 560 __________P___ -1 25.9549 128.618 4 10 333
1944254N13142 1944 56 WP MM NOT_NAMED 1944-09-15 12:00:00 NR 26.4000 128.400 main 560 523 __________O___ -1 26.4000 128.400 4 9 340
1944254N13142 1944 56 WP MM NOT_NAMED 1944-09-15 15:00:00 NR 26.8357 128.254 main 523 486 __________P___ -1 26.8357 128.254 4 9 347
1944254N13142 1944 56 WP MM NOT_NAMED 1944-09-15 18:00:00 NR 27.2622 128.169 main 476 440 __________P___ -1 27.2622 128.169 4 9 352
1944254N13142 1944 56 WP MM NOT_NAMED 1944-09-15 21:00:00 NR 27.6826 128.124 main 440 400 __________P___ -1 27.6826 128.124 4 8 357
1944254N13142 1944 56 WP MM NOT_NAMED 1944-09-16 00:00:00 NR 28.1000 128.100 main 400 __________O___ -1 28.1000 128.100 4 8 0

Digital Typhoon Data and Search

About IBTrACS Database

This database is a web-friendly format of International Best Track Archive for Climate Stewardship (IBTrACS), a global best track data archive curated by NOAA dating back to 1842.

Updated: 2021-12-01